createdAt,value
2022-08-22T00:01:06.841Z,19.4
2022-08-22T00:02:44.826Z,23.2
2022-08-22T00:07:06.865Z,19.5
2022-08-22T00:13:06.963Z,19.3
2022-08-22T00:19:06.868Z,19.5
2022-08-22T00:25:06.849Z,19.5
2022-08-22T00:31:06.866Z,19.4
2022-08-22T00:37:06.910Z,19.3
2022-08-22T00:43:06.863Z,19.2
2022-08-22T00:49:06.935Z,19
2022-08-22T00:55:06.885Z,19.1
2022-08-22T01:01:07.031Z,18.9
2022-08-22T01:07:07.180Z,18.8
2022-08-22T01:13:06.880Z,18.7
2022-08-22T01:19:06.874Z,18.6
2022-08-22T01:25:06.886Z,18.7
2022-08-22T01:31:06.906Z,18.4
2022-08-22T01:37:06.902Z,18.4
2022-08-22T01:43:06.899Z,18.3
2022-08-22T01:49:06.880Z,18.3
2022-08-22T01:55:06.884Z,18.4
2022-08-22T02:01:06.922Z,18
2022-08-22T02:07:06.892Z,18
2022-08-22T02:13:06.892Z,17.8
2022-08-22T02:19:06.878Z,17.6
2022-08-22T02:25:06.908Z,17.4
2022-08-22T02:31:06.888Z,17.5
2022-08-22T02:37:06.909Z,17.4
2022-08-22T02:43:06.887Z,17.5
2022-08-22T02:49:06.902Z,17.5
2022-08-22T02:55:06.884Z,17.3
2022-08-22T03:01:06.933Z,17
2022-08-22T03:07:07.006Z,16.8
2022-08-22T03:13:06.903Z,16.7
2022-08-22T03:19:06.912Z,16.9
2022-08-22T03:25:06.894Z,16.8
2022-08-22T03:31:06.965Z,17
2022-08-22T03:37:06.920Z,16.8
2022-08-22T03:43:06.904Z,16.8
2022-08-22T03:49:06.910Z,16.9
2022-08-22T03:55:06.900Z,16.9
2022-08-22T04:01:06.961Z,16.7
2022-08-22T04:07:14.263Z,16.5
2022-08-22T04:13:06.908Z,16.6
2022-08-22T04:19:08.021Z,16.6
2022-08-22T04:25:08.136Z,16.6
2022-08-22T04:31:06.912Z,16.7
2022-08-22T04:37:06.934Z,16.5
2022-08-22T04:43:06.925Z,16.4
2022-08-22T04:49:06.899Z,16.4
2022-08-22T04:55:06.902Z,16.3
2022-08-22T05:01:06.907Z,16.4
2022-08-22T05:07:06.935Z,16.3
2022-08-22T05:13:06.930Z,16.1
2022-08-22T05:19:06.908Z,15.9
2022-08-22T05:25:06.925Z,16.1
2022-08-22T05:31:06.927Z,16.5
2022-08-22T05:37:08.194Z,16.8
2022-08-22T05:43:06.951Z,17.1
2022-08-22T05:49:06.908Z,17.1
2022-08-22T05:55:06.942Z,17.3
2022-08-22T06:01:06.911Z,17.5
2022-08-22T06:07:06.926Z,17.9
2022-08-22T06:13:11.413Z,18.2
2022-08-22T06:19:19.548Z,18.1
2022-08-22T06:25:06.918Z,18.3
2022-08-22T06:31:06.925Z,18.7
2022-08-22T06:37:06.931Z,20.1
2022-08-22T06:43:06.947Z,22.9
2022-08-22T06:49:06.944Z,25.1
2022-08-22T06:55:06.933Z,27.8
2022-08-22T07:01:11.363Z,29.6
2022-08-22T07:07:06.955Z,30.1
2022-08-22T07:13:06.955Z,30.1
2022-08-22T07:19:06.944Z,30.5
2022-08-22T07:25:06.959Z,33.4
2022-08-22T07:31:06.958Z,32.9
2022-08-22T07:37:06.996Z,32.4
2022-08-22T07:43:06.959Z,33.1
2022-08-22T07:49:09.541Z,35.5
2022-08-22T07:55:06.989Z,35.3
2022-08-22T08:01:07.018Z,34.9
2022-08-22T08:07:07.004Z,35.8
2022-08-22T08:13:06.987Z,36.8
2022-08-22T08:19:06.980Z,37.2
2022-08-22T08:25:07.011Z,34.2
2022-08-22T08:31:06.995Z,36.3
2022-08-22T08:37:06.989Z,36.5
2022-08-22T08:43:10.818Z,36.4
2022-08-22T08:49:07.013Z,37.6
2022-08-22T08:55:19.991Z,34.7
2022-08-22T09:01:07.081Z,36.9
2022-08-22T09:07:07.016Z,36.9
2022-08-22T09:13:11.627Z,36.1
2022-08-22T09:19:07.004Z,36.2
2022-08-22T09:25:07.019Z,36.5
2022-08-22T09:31:16.966Z,36.8
2022-08-22T09:37:07.020Z,36.6
2022-08-22T09:43:07.049Z,37.6
2022-08-22T09:49:07.021Z,37.1
2022-08-22T09:55:08.124Z,37
2022-08-22T10:01:07.093Z,36.8
2022-08-22T10:07:11.185Z,38.2
2022-08-22T10:13:10.427Z,39.6
2022-08-22T10:19:07.044Z,36.2
2022-08-22T10:25:07.048Z,33.4
2022-08-22T10:31:07.064Z,33
2022-08-22T10:37:07.049Z,33.2
2022-08-22T10:43:07.089Z,32.4
2022-08-22T10:49:07.972Z,32.4
2022-08-22T10:55:09.965Z,31.8
2022-08-22T11:01:37.227Z,34.4
2022-08-22T11:07:07.706Z,35.3
2022-08-22T11:13:07.070Z,34.4
2022-08-22T11:19:15.003Z,33.8
2022-08-22T11:25:07.121Z,35
2022-08-22T11:31:07.544Z,35.2
2022-08-22T11:37:11.474Z,34.4
2022-08-22T11:43:10.641Z,33.4
2022-08-22T11:49:07.074Z,32.7
2022-08-22T11:55:07.349Z,33
2022-08-22T12:01:09.680Z,33.6
2022-08-22T12:07:07.082Z,33.1
2022-08-22T12:13:07.112Z,32.8
2022-08-22T12:19:07.109Z,32.6
2022-08-22T12:25:07.144Z,33
2022-08-22T12:31:07.123Z,33.2
2022-08-22T12:37:07.103Z,33
2022-08-22T12:43:07.091Z,32.8
2022-08-22T12:49:07.851Z,32.3
2022-08-22T12:55:07.110Z,32.9
2022-08-22T13:01:07.222Z,33.5
2022-08-22T13:07:07.122Z,33.8
2022-08-22T13:13:12.086Z,33.2
2022-08-22T13:19:07.629Z,33.4
2022-08-22T13:25:08.668Z,33
2022-08-22T13:31:07.139Z,32.8
2022-08-22T13:37:07.152Z,32.3
2022-08-22T13:43:07.121Z,33
2022-08-22T13:49:07.777Z,33.2
2022-08-22T13:55:12.591Z,33.2
2022-08-22T14:01:07.151Z,32.4
2022-08-22T14:07:07.182Z,32.4
2022-08-22T14:13:07.136Z,32.6
2022-08-22T14:19:07.153Z,32
2022-08-22T14:25:07.383Z,32.4
2022-08-22T14:31:07.172Z,31.1
2022-08-22T14:37:07.181Z,31.1
2022-08-22T14:43:07.136Z,30.3
2022-08-22T14:49:07.138Z,29.8
2022-08-22T14:55:08.400Z,30
2022-08-22T15:01:09.805Z,30.2
2022-08-22T15:07:07.145Z,30.1
2022-08-22T15:13:07.162Z,30
2022-08-22T15:19:07.148Z,29.8
2022-08-22T15:25:07.178Z,29.8
2022-08-22T15:31:07.245Z,29.7
2022-08-22T15:37:09.111Z,29.6
2022-08-22T15:43:07.171Z,29.7
2022-08-22T15:49:07.217Z,29.5
2022-08-22T15:55:07.184Z,29.5
2022-08-22T16:01:19.196Z,29.5
2022-08-22T16:07:09.378Z,29.4
2022-08-22T16:13:07.187Z,29.6
2022-08-22T16:19:07.180Z,29.7
2022-08-22T16:25:10.155Z,29.2
2022-08-22T16:31:07.193Z,29.1
2022-08-22T16:37:07.214Z,29
2022-08-22T16:43:07.237Z,28.9
2022-08-22T16:49:07.208Z,28.9
2022-08-22T16:55:07.209Z,28.9
2022-08-22T17:01:07.317Z,28.6
2022-08-22T17:07:07.213Z,28.8
2022-08-22T17:13:07.225Z,28.8
2022-08-22T17:19:07.214Z,28.5
2022-08-22T17:25:07.195Z,28.6
2022-08-22T17:31:07.228Z,28.4
2022-08-22T17:37:07.242Z,28.4
2022-08-22T17:43:07.263Z,28.2
2022-08-22T17:49:07.243Z,27.9
2022-08-22T17:55:07.219Z,27.6
2022-08-22T18:01:07.321Z,27.4
2022-08-22T18:07:07.243Z,27.4
2022-08-22T18:13:07.652Z,27.5
2022-08-22T18:19:07.373Z,27.4
2022-08-22T18:25:07.223Z,27.1
2022-08-22T18:31:07.227Z,27.2
2022-08-22T18:37:07.232Z,27.1
2022-08-22T18:43:07.251Z,26.8
2022-08-22T18:49:15.856Z,26.7
2022-08-22T18:55:07.243Z,26.9
2022-08-22T19:01:07.299Z,26.6
2022-08-22T19:07:07.223Z,26.3
2022-08-22T19:13:07.244Z,26.2
2022-08-22T19:19:07.254Z,26.2
2022-08-22T19:25:08.939Z,26.3
2022-08-22T19:31:07.287Z,25.8
2022-08-22T19:37:07.280Z,25.7
2022-08-22T19:43:07.252Z,25.7
2022-08-22T19:49:07.248Z,25.7
2022-08-22T19:55:07.285Z,25.5
2022-08-22T20:01:07.329Z,25.3
2022-08-22T20:07:14.846Z,25.3
2022-08-22T20:13:07.724Z,25.3
2022-08-22T20:19:09.335Z,25.2
2022-08-22T20:25:07.305Z,25
2022-08-22T20:31:07.263Z,24.9
2022-08-22T20:37:28.989Z,24.7
2022-08-22T20:43:10.700Z,24.6
2022-08-22T20:49:07.307Z,24.6
2022-08-22T20:55:07.270Z,24.5
2022-08-22T21:01:07.379Z,24.5
2022-08-22T21:07:07.293Z,24.5
2022-08-22T21:13:07.295Z,24.5
2022-08-22T21:19:07.281Z,24.5
2022-08-22T21:25:07.291Z,24.5
2022-08-22T21:31:07.294Z,24.4
2022-08-22T21:37:07.330Z,24.2
2022-08-22T21:43:07.296Z,24
2022-08-22T21:49:07.300Z,24.1
2022-08-22T21:55:07.288Z,24
2022-08-22T22:01:07.399Z,23.9
2022-08-22T22:07:07.326Z,23.8
2022-08-22T22:13:07.311Z,23.8
2022-08-22T22:19:07.304Z,23.9
2022-08-22T22:25:07.305Z,23.8
2022-08-22T22:31:07.299Z,23.7
2022-08-22T22:37:07.301Z,23.7
2022-08-22T22:43:07.301Z,23.6
2022-08-22T22:49:07.313Z,23.1
2022-08-22T22:55:07.319Z,23.2
2022-08-22T23:01:07.384Z,23.3
2022-08-22T23:07:07.315Z,23.3
2022-08-22T23:13:07.329Z,23.2
2022-08-22T23:19:07.376Z,22.9
2022-08-22T23:25:07.312Z,22.8
2022-08-22T23:31:07.326Z,22.3
2022-08-22T23:37:07.341Z,22.1
2022-08-22T23:43:07.340Z,21.8
2022-08-22T23:49:07.333Z,22.3
2022-08-22T23:55:07.345Z,22.3
